Time;durP1;ratioP1;P1;durP2;ratioP2;P2;SDS_P1;SDS_P2;PMS_P1;PMS_P2;Temp;Humidity;BMP_temperature;BMP_pressure;BME280_temperature;BME280_humidity;BME280_pressure;Samples;Min_cycle;Max_cycle;Signal;HPM_P1;HPM_P2
2020/12/22 00:00:10;;;;;;;5.17;4.17;;;;;;;6.56;100.00;96224.38;1045062;28;20361;-41
2020/12/22 00:00:40;;;;;;;6.33;4.37;;;;;;;6.57;100.00;96233.84;1045072;28;20063;-42
2020/12/22 00:01:11;;;;;;;6.30;4.27;;;;;;;6.56;100.00;96235.66;1045012;28;20009;-44
2020/12/22 00:01:42;;;;;;;4.73;3.43;;;;;;;6.56;100.00;96224.38;1044627;28;20020;-42
2020/12/22 00:02:12;;;;;;;5.67;3.70;;;;;;;6.56;100.00;96225.19;1044637;28;20076;-42
2020/12/22 00:02:46;;;;;;;5.80;4.00;;;;;;;6.54;100.00;96229.78;1044442;28;20057;-43
2020/12/22 00:03:17;;;;;;;5.78;4.10;;;;;;;6.56;100.00;96222.56;1044579;28;20017;-42
2020/12/22 00:03:48;;;;;;;6.40;4.20;;;;;;;6.56;100.00;96227.81;1044902;28;20454;-44
2020/12/22 00:04:18;;;;;;;8.23;4.25;;;;;;;6.56;100.00;96237.47;1045008;28;20017;-43
2020/12/22 00:04:49;;;;;;;5.33;4.30;;;;;;;6.55;100.00;96223.53;1044809;28;20013;-43
2020/12/22 00:05:19;;;;;;;6.50;4.10;;;;;;;6.57;100.00;96231.22;1044925;28;20009;-44
2020/12/22 00:05:52;;;;;;;6.20;3.77;;;;;;;6.50;100.00;96235.47;1045016;28;20362;-43
2020/12/22 00:06:23;;;;;;;6.07;4.45;;;;;;;6.51;100.00;96229.28;1044983;28;20013;-43
2020/12/22 00:06:57;;;;;;;7.65;4.40;;;;;;;6.50;100.00;96230.25;1044914;28;20096;-42
2020/12/22 00:07:30;;;;;;;6.57;4.43;;;;;;;6.51;100.00;96227.50;1044772;28;20020;-42
2020/12/22 00:08:00;;;;;;;7.25;4.03;;;;;;;6.53;100.00;96224.72;1044964;28;20044;-43
2020/12/22 00:08:31;;;;;;;5.23;4.20;;;;;;;6.54;100.00;96226.31;1045023;28;20013;-43
2020/12/22 00:09:01;;;;;;;4.60;2.97;;;;;;;6.57;100.00;96228.59;1044938;28;20021;-42
2020/12/22 00:09:31;;;;;;;6.03;3.83;;;;;;;6.58;100.00;96223.22;1044964;28;20020;-42
2020/12/22 00:10:04;;;;;;;5.80;4.20;;;;;;;6.58;100.00;96227.63;1044934;28;20044;-43
2020/12/22 00:10:34;;;;;;;5.13;4.22;;;;;;;6.55;100.00;96227.97;1044847;28;20013;-43
2020/12/22 00:11:05;;;;;;;4.77;3.37;;;;;;;6.57;100.00;96221.59;1044508;28;20366;-42
2020/12/22 00:11:35;;;;;;;5.43;3.93;;;;;;;6.60;100.00;96225.66;1044429;28;20020;-43
2020/12/22 00:12:15;;;;;;;5.43;3.77;;;;;;;6.59;100.00;96226.66;1044498;28;20021;-42
2020/12/22 00:12:46;;;;;;;5.98;3.98;;;;;;;6.59;100.00;96226.66;1044448;28;20056;-44
2020/12/22 00:13:16;;;;;;;5.40;4.10;;;;;;;6.56;100.00;96225.19;1044966;28;20445;-42
2020/12/22 00:13:47;;;;;;;5.67;3.87;;;;;;;6.56;100.00;96227.81;1044902;28;20009;-42
2020/12/22 00:14:17;;;;;;;4.70;3.57;;;;;;;6.57;100.00;96220.75;1044821;28;20462;-43
2020/12/22 00:14:48;;;;;;;6.30;4.17;;;;;;;6.55;100.00;96222.75;1044981;28;20009;-43
2020/12/22 00:15:18;;;;;;;6.37;4.03;;;;;;;6.51;100.00;96224.88;1044881;28;20009;-45
2020/12/22 00:15:49;;;;;;;7.00;4.00;;;;;;;6.51;100.00;96224.03;1044763;28;20013;-44
2020/12/22 00:16:19;;;;;;;4.43;3.70;;;;;;;6.53;100.00;96227.34;1044403;28;20009;-43
2020/12/22 00:16:50;;;;;;;5.67;3.90;;;;;;;6.53;100.00;96225.53;1044615;28;20017;-42
2020/12/22 00:17:20;;;;;;;5.10;4.00;;;;;;;6.56;100.00;96221.75;1044608;28;20017;-44
2020/12/22 00:17:51;;;;;;;5.40;3.87;;;;;;;6.56;100.00;96227.00;1044462;28;20017;-43
2020/12/22 00:18:21;;;;;;;5.77;3.80;;;;;;;6.58;100.00;96228.44;1044953;28;20013;-42
2020/12/22 00:18:52;;;;;;;5.40;4.27;;;;;;;6.58;100.00;96222.41;1044806;28;20052;-45
2020/12/22 00:19:22;;;;;;;7.37;4.53;;;;;;;6.56;100.00;96219.16;1045028;28;20359;-43
2020/12/22 00:19:52;;;;;;;5.03;4.07;;;;;;;6.55;100.00;96218.31;1044804;28;20021;-42
2020/12/22 00:20:23;;;;;;;6.47;4.03;;;;;;;6.53;100.00;96215.06;1044840;28;20098;-43
2020/12/22 00:20:53;;;;;;;5.97;4.03;;;;;;;6.55;100.00;96218.31;1044784;28;20040;-44
2020/12/22 00:21:24;;;;;;;5.17;4.00;;;;;;;6.56;100.00;96214.72;1044993;28;20436;-43
2020/12/22 00:21:54;;;;;;;6.57;4.33;;;;;;;6.57;100.00;96212.91;1044721;28;20049;-43
2020/12/22 00:22:25;;;;;;;5.07;4.20;;;;;;;6.57;100.00;96208.50;1045033;28;20009;-43
2020/12/22 00:22:55;;;;;;;5.70;4.17;;;;;;;6.56;100.00;96219.94;1044691;28;20021;-44
2020/12/22 00:23:26;;;;;;;5.30;4.10;;;;;;;6.55;100.00;96215.69;1044983;28;20095;-44
2020/12/22 00:23:56;;;;;;;5.30;3.70;;;;;;;6.60;100.00;96220.41;1044844;28;20070;-43
2020/12/22 00:24:27;;;;;;;6.80;3.97;;;;;;;6.61;100.00;96222.06;1045003;28;20020;-44
2020/12/22 00:24:57;;;;;;;5.80;4.27;;;;;;;6.60;100.00;96222.22;1044954;28;20032;-47
2020/12/22 00:25:28;;;;;;;6.47;4.13;;;;;;;6.56;100.00;96219.94;1044688;28;20017;-44
2020/12/22 00:25:58;;;;;;;7.63;4.43;;;;;;;6.56;100.00;96224.38;1044794;28;20468;-43
2020/12/22 00:26:29;;;;;;;6.30;5.10;;;;;;;6.52;100.00;96223.06;1044705;28;20021;-45
2020/12/22 00:26:59;;;;;;;7.50;4.53;;;;;;;6.52;100.00;96218.66;1044779;28;20413;-44
2020/12/22 00:27:33;;;;;;;7.70;5.23;;;;;;;6.52;100.00;96218.66;1044937;28;20066;-43
2020/12/22 00:28:03;;;;;;;5.75;4.53;;;;;;;6.52;100.00;96225.69;1045015;28;20016;-44
2020/12/22 00:28:33;;;;;;;5.80;4.80;;;;;;;6.53;100.00;96212.44;1045239;28;20017;-42
2020/12/22 00:29:04;;;;;;;5.63;4.30;;;;;;;6.53;100.00;96225.53;1045398;28;20017;-44
2020/12/22 00:29:34;;;;;;;5.90;4.27;;;;;;;6.54;100.00;96224.53;1045103;28;20370;-43
2020/12/22 00:30:05;;;;;;;5.47;4.17;;;;;;;6.55;100.00;96218.31;1044857;28;20017;-44
2020/12/22 00:30:35;;;;;;;7.17;4.40;;;;;;;6.58;100.00;96223.22;1045085;28;20021;-44
2020/12/22 00:31:06;;;;;;;5.00;3.70;;;;;;;6.58;100.00;96223.22;1045066;28;20463;-43
2020/12/22 00:31:36;;;;;;;5.23;3.70;;;;;;;6.64;100.00;96226.97;1044934;28;20325;-44
2020/12/22 00:32:07;;;;;;;4.87;3.90;;;;;;;6.61;100.00;96224.69;1044840;28;20032;-43
2020/12/22 00:32:38;;;;;;;6.70;4.15;;;;;;;6.61;100.00;96229.91;1044785;28;20025;-44
2020/12/22 00:33:08;;;;;;;4.77;3.57;;;;;;;6.63;100.00;96221.91;1044798;28;20044;-44
2020/12/22 00:33:39;;;;;;;5.13;3.70;;;;;;;6.63;100.00;96220.09;1045027;28;20013;-43
2020/12/22 00:34:09;;;;;;;5.07;4.10;;;;;;;6.65;100.00;96222.53;1044965;28;20020;-43
2020/12/22 00:34:40;;;;;;;5.10;4.10;;;;;;;6.65;100.00;96222.53;1044884;28;20493;-42
2020/12/22 00:35:10;;;;;;;6.67;4.73;;;;;;;6.58;100.00;96220.59;1045050;28;20021;-45
2020/12/22 00:35:41;;;;;;;5.40;4.23;;;;;;;6.60;100.00;96230.09;1045006;28;20067;-42
2020/12/22 00:36:11;;;;;;;6.23;4.50;;;;;;;6.58;100.00;96225.03;1045051;28;20036;-42
2020/12/22 00:36:41;;;;;;;5.20;4.00;;;;;;;6.60;100.00;96223.03;1045216;28;20052;-42
2020/12/22 00:37:12;;;;;;;4.80;4.07;;;;;;;6.63;100.00;96233.16;1045446;28;20017;-42
2020/12/22 00:37:42;;;;;;;5.60;3.90;;;;;;;6.66;100.00;96232.03;1045348;28;20542;-42
2020/12/22 00:38:13;;;;;;;5.30;3.80;;;;;;;6.67;100.00;96226.63;1045325;28;20021;-42
2020/12/22 00:38:44;;;;;;;4.93;3.57;;;;;;;6.68;100.00;96228.28;1045333;28;20024;-41
2020/12/22 00:39:14;;;;;;;5.05;3.55;;;;;;;6.70;100.00;96231.53;1044814;28;20033;-42
2020/12/22 00:39:45;;;;;;;4.43;3.80;;;;;;;6.73;100.00;96235.63;1045040;28;20404;-42
2020/12/22 00:40:15;;;;;;;6.40;3.90;;;;;;;6.69;100.00;96231.69;1044586;28;20055;-42
2020/12/22 00:40:46;;;;;;;5.07;3.67;;;;;;;6.69;100.00;96232.50;1044602;28;20025;-42
2020/12/22 00:41:16;;;;;;;5.80;3.97;;;;;;;6.73;100.00;96238.22;1045093;28;20025;-42
2020/12/22 00:41:53;;;;;;;6.53;3.73;;;;;;;6.75;100.00;96238.88;1044927;28;20032;-42
2020/12/22 00:42:24;;;;;;;4.63;3.53;;;;;;;6.74;100.00;96237.22;1044947;28;20017;-42
2020/12/22 00:42:54;;;;;;;5.30;3.37;;;;;;;6.76;100.00;96241.31;1044657;28;20033;-41
2020/12/22 00:43:25;;;;;;;6.20;3.90;;;;;;;6.78;100.00;96232.50;1044341;28;20370;-42
2020/12/22 00:43:55;;;;;;;4.93;3.70;;;;;;;6.78;100.00;96229.88;1044427;28;20472;-43
2020/12/22 00:44:26;;;;;;;4.83;3.70;;;;;;;6.79;100.00;96239.34;1044950;28;20017;-42
2020/12/22 00:44:57;;;;;;;4.90;4.00;;;;;;;6.78;100.00;96237.72;1044751;28;20024;-43
2020/12/22 00:45:27;;;;;;;6.07;3.53;;;;;;;6.80;100.00;96236.56;1044997;28;20059;-43
2020/12/22 00:45:58;;;;;;;4.97;3.90;;;;;;;6.75;100.00;96237.06;1044789;28;20078;-43
2020/12/22 00:46:28;;;;;;;5.23;3.50;;;;;;;6.80;100.00;96241.78;1044983;28;20476;-43
2020/12/22 00:46:59;;;;;;;6.80;3.37;;;;;;;6.80;100.00;96231.31;1044851;28;20033;-43
2020/12/22 00:47:29;;;;;;;5.50;3.90;;;;;;;6.79;100.00;96234.94;1044917;28;20454;-43
2020/12/22 00:48:00;;;;;;;4.70;3.80;;;;;;;6.80;100.00;96239.16;1044452;28;20028;-42
2020/12/22 00:48:30;;;;;;;5.13;3.80;;;;;;;6.81;100.00;96229.53;1044649;28;20365;-43
2020/12/22 00:49:01;;;;;;;5.17;3.90;;;;;;;6.81;100.00;96242.63;1040415;28;20537;-43
2020/12/22 00:49:31;;;;;;;5.10;4.33;;;;;;;6.82;100.00;96231.16;1040613;28;20144;-42
2020/12/22 00:50:02;;;;;;;4.80;3.40;;;;;;;6.81;100.00;96243.44;1044630;28;20028;-43
2020/12/22 00:50:32;;;;;;;5.57;3.90;;;;;;;6.81;100.00;96242.63;1040676;28;20013;-43
2020/12/22 00:51:03;;;;;;;5.10;4.10;;;;;;;6.78;100.00;96237.72;1044493;28;20021;-42
2020/12/22 00:51:33;;;;;;;6.10;4.20;;;;;;;6.73;100.00;96233.81;1044654;28;20013;-42
2020/12/22 00:52:03;;;;;;;4.63;3.90;;;;;;;6.78;100.00;96242.97;1044601;28;20025;-43
2020/12/22 00:52:34;;;;;;;5.03;3.90;;;;;;;6.76;100.00;96225.63;1044926;28;20020;-43
2020/12/22 00:53:04;;;;;;;5.40;4.27;;;;;;;6.74;100.00;96235.44;1044670;28;20107;-43
2020/12/22 00:53:35;;;;;;;6.73;3.97;;;;;;;6.78;100.00;96235.09;1044909;28;20381;-42
2020/12/22 00:54:05;;;;;;;7.50;4.17;;;;;;;6.78;100.00;96238.53;1045026;28;20005;-42
2020/12/22 00:54:36;;;;;;;6.43;4.33;;;;;;;6.79;100.00;96234.09;1044930;28;20016;-42
2020/12/22 00:55:06;;;;;;;6.27;4.67;;;;;;;6.73;100.00;96236.41;1044861;28;20020;-42
2020/12/22 00:55:37;;;;;;;5.27;4.07;;;;;;;6.72;100.00;96236.59;1040582;28;20014;-42
2020/12/22 00:56:11;;;;;;;6.53;4.13;;;;;;;6.72;100.00;96237.41;1040502;28;20018;-42
2020/12/22 00:56:42;;;;;;;5.22;3.88;;;;;;;6.74;100.00;96238.06;1040474;28;20009;-43
2020/12/22 00:57:12;;;;;;;4.83;3.63;;;;;;;6.77;100.00;96234.28;1041117;28;20021;-42
2020/12/22 00:57:43;;;;;;;4.95;4.00;;;;;;;6.75;100.00;96234.44;1040267;28;20064;-43
2020/12/22 00:58:13;;;;;;;4.97;4.13;;;;;;;6.72;100.00;96240.00;1040455;28;20010;-42
2020/12/22 00:58:44;;;;;;;6.47;4.10;;;;;;;6.74;100.00;96235.44;1040439;28;20021;-42
2020/12/22 00:59:14;;;;;;;5.87;4.13;;;;;;;6.74;100.00;96237.22;1040776;28;20018;-43
2020/12/22 00:59:45;;;;;;;4.90;4.37;;;;;;;6.74;100.00;96226.75;1044729;28;20020;-44
2020/12/22 01:00:16;;;;;;;5.50;4.03;;;;;;;6.74;100.00;96232.00;1044626;28;20029;-42
2020/12/22 01:00:46;;;;;;;9.05;4.30;;;;;;;6.73;100.00;96233.81;1044647;28;20019;-42
2020/12/22 01:01:17;;;;;;;5.93;4.23;;;;;;;6.74;100.00;96232.00;1044679;28;20059;-42
2020/12/22 01:01:47;;;;;;;5.50;3.97;;;;;;;6.74;100.00;96230.22;1044915;28;20012;-42
2020/12/22 01:02:18;;;;;;;5.33;4.10;;;;;;;6.75;100.00;96236.25;1044798;28;20012;-42
2020/12/22 01:02:48;;;;;;;5.47;4.20;;;;;;;6.74;100.00;96232.81;1044655;28;20433;-42
2020/12/22 01:03:19;;;;;;;4.67;3.90;;;;;;;6.72;100.00;96234.78;1044518;28;20039;-42
2020/12/22 01:03:49;;;;;;;4.23;3.40;;;;;;;6.77;100.00;96234.28;1044459;28;20012;-42
2020/12/22 01:04:20;;;;;;;4.57;3.50;;;;;;;6.78;100.00;96233.28;1044495;28;20436;-43
2020/12/22 01:04:50;;;;;;;4.93;3.90;;;;;;;6.77;100.00;96226.41;1044427;28;20009;-43
2020/12/22 01:05:21;;;;;;;4.90;3.83;;;;;;;6.76;100.00;96236.09;1044469;28;20096;-42
2020/12/22 01:05:51;;;;;;;4.60;3.90;;;;;;;6.75;100.00;96231.81;1044450;28;20025;-42
2020/12/22 01:06:22;;;;;;;5.07;3.80;;;;;;;6.74;100.00;96226.75;1044739;28;20465;-43
2020/12/22 01:06:52;;;;;;;4.63;3.33;;;;;;;6.78;100.00;96235.91;1044418;28;20009;-43
2020/12/22 01:07:23;;;;;;;4.93;3.60;;;;;;;6.78;100.00;96228.06;1044863;28;20009;-43
2020/12/22 01:07:53;;;;;;;4.57;3.20;;;;;;;6.81;100.00;96232.16;1044726;28;20009;-43
2020/12/22 01:08:24;;;;;;;4.80;3.70;;;;;;;6.80;100.00;96214.81;1044884;28;20461;-43
2020/12/22 01:08:54;;;;;;;6.33;4.23;;;;;;;6.78;100.00;96222.03;1044836;28;20013;-44
2020/12/22 01:09:24;;;;;;;4.93;3.83;;;;;;;6.76;100.00;96215.16;1044938;28;20013;-43
2020/12/22 01:09:55;;;;;;;4.40;3.70;;;;;;;6.76;100.00;96224.81;1044715;28;20013;-44
2020/12/22 01:10:25;;;;;;;5.20;3.53;;;;;;;6.77;100.00;96223.81;1044871;28;20473;-45
2020/12/22 01:10:56;;;;;;;4.57;3.63;;;;;;;6.79;100.00;96226.25;1044842;28;20036;-42
2020/12/22 01:11:26;;;;;;;4.70;3.60;;;;;;;6.79;100.00;96224.47;1044865;28;20458;-43
2020/12/22 01:11:57;;;;;;;4.77;3.73;;;;;;;6.81;100.00;96226.91;1044691;28;20012;-43
2020/12/22 01:12:27;;;;;;;5.03;4.20;;;;;;;6.78;100.00;96214.16;1044247;28;20025;-44
2020/12/22 01:12:58;;;;;;;5.33;3.80;;;;;;;6.77;100.00;96218.56;1044269;28;20426;-44
2020/12/22 01:13:28;;;;;;;4.80;4.10;;;;;;;6.75;100.00;96216.13;1044534;28;20017;-43
2020/12/22 01:13:59;;;;;;;6.63;4.20;;;;;;;6.74;100.00;96218.91;1044383;28;20448;-43
2020/12/22 01:14:29;;;;;;;6.00;4.57;;;;;;;6.75;100.00;96216.13;1040159;28;20079;-42
2020/12/22 01:15:00;;;;;;;5.43;4.20;;;;;;;6.74;100.00;96217.13;1040364;28;20013;-43
2020/12/22 01:15:30;;;;;;;5.57;3.40;;;;;;;6.77;100.00;96215.94;1040439;28;20021;-43
2020/12/22 01:16:01;;;;;;;4.83;3.73;;;;;;;6.76;100.00;96214.34;1040410;28;20060;-43
2020/12/22 01:16:31;;;;;;;4.70;3.37;;;;;;;6.79;100.00;96215.78;1044789;28;20017;-43
2020/12/22 01:17:02;;;;;;;4.70;3.70;;;;;;;6.73;100.00;96222.53;1044701;28;20029;-43
2020/12/22 01:17:33;;;;;;;5.30;4.07;;;;;;;6.76;100.00;96224.81;1044773;28;20104;-43
2020/12/22 01:18:03;;;;;;;4.83;3.57;;;;;;;6.80;100.00;96220.84;1044684;28;20024;-44
2020/12/22 01:18:34;;;;;;;4.83;3.70;;;;;;;6.81;100.00;96229.53;1044862;28;20140;-43
2020/12/22 01:19:04;;;;;;;4.73;3.60;;;;;;;6.77;100.00;96226.41;1044849;28;20024;-45
2020/12/22 01:19:34;;;;;;;4.00;3.10;;;;;;;6.80;100.00;96227.91;1044896;28;20017;-44
2020/12/22 01:20:05;;;;;;;4.50;3.40;;;;;;;6.76;100.00;96224.81;1044697;28;20477;-43
2020/12/22 01:20:35;;;;;;;6.83;3.37;;;;;;;6.78;100.00;96216.78;1044865;28;20024;-44
2020/12/22 01:21:06;;;;;;;5.07;3.90;;;;;;;6.81;100.00;96222.50;1044792;28;20031;-44
2020/12/22 01:21:36;;;;;;;5.33;3.60;;;;;;;6.79;100.00;96226.25;1044374;28;20367;-45
2020/12/22 01:22:07;;;;;;;6.37;3.73;;;;;;;6.82;100.00;96220.69;1044513;28;20021;-43
2020/12/22 01:22:40;;;;;;;4.67;3.53;;;;;;;6.79;100.00;96219.25;1044262;28;20025;-43
2020/12/22 01:23:11;;;;;;;5.07;3.45;;;;;;;6.82;100.00;96221.50;1044251;28;20070;-42
2020/12/22 01:23:41;;;;;;;4.43;3.40;;;;;;;6.85;100.00;96225.59;1044806;28;20079;-43
2020/12/22 01:24:11;;;;;;;3.70;2.80;;;;;;;6.89;100.00;96219.88;1044304;28;20049;-44
2020/12/22 01:24:42;;;;;;;4.20;3.33;;;;;;;6.89;100.00;96214.63;1044379;28;20110;-44
2020/12/22 01:25:12;;;;;;;4.13;3.37;;;;;;;6.87;100.00;96213.97;1040302;28;20025;-44
2020/12/22 01:25:43;;;;;;;4.43;3.03;;;;;;;6.90;100.00;96212.81;1040356;28;20025;-44
2020/12/22 01:26:23;;;;;;;4.33;3.17;;;;;;;6.89;100.00;96209.38;1044451;28;20134;-44
2020/12/22 01:26:54;;;;;;;4.78;3.15;;;;;;;6.89;100.00;96214.63;1044565;28;20102;-42
2020/12/22 01:27:24;;;;;;;4.10;3.20;;;;;;;6.93;100.00;96213.28;1044674;28;20028;-43
2020/12/22 01:27:55;;;;;;;4.33;2.90;;;;;;;6.96;100.00;96208.72;1044770;28;20025;-43
2020/12/22 01:28:25;;;;;;;4.00;3.00;;;;;;;6.98;100.00;96210.16;1044589;28;20012;-44
2020/12/22 01:28:56;;;;;;;4.30;3.50;;;;;;;6.97;100.00;96221.63;1044836;28;20051;-43
2020/12/22 01:29:26;;;;;;;4.50;3.03;;;;;;;6.96;100.00;96208.72;1044694;28;20024;-44
2020/12/22 01:29:56;;;;;;;4.87;3.60;;;;;;;6.93;100.00;96207.25;1044877;28;20067;-44
2020/12/22 01:30:27;;;;;;;4.67;3.27;;;;;;;6.96;100.00;96209.50;1044643;28;20051;-44
2020/12/22 01:30:57;;;;;;;4.10;3.20;;;;;;;6.97;100.00;96207.72;1044681;28;20025;-45
2020/12/22 01:31:29;;;;;;;4.80;3.37;;;;;;;6.94;100.00;96204.44;1044639;28;20538;-44
2020/12/22 01:31:59;;;;;;;4.65;3.17;;;;;;;6.95;100.00;96205.25;1044744;28;20507;-43
2020/12/22 01:32:30;;;;;;;4.43;3.50;;;;;;;6.94;100.00;96201.84;1044599;28;20025;-44
2020/12/22 01:33:00;;;;;;;5.83;3.23;;;;;;;6.99;100.00;96213.59;1044534;28;20112;-43
2020/12/22 01:33:31;;;;;;;4.63;3.40;;;;;;;7.00;100.00;96209.97;1044645;28;20020;-43
2020/12/22 01:34:01;;;;;;;5.30;3.50;;;;;;;6.98;100.00;96207.53;1044817;28;20350;-45
2020/12/22 01:34:32;;;;;;;5.77;3.43;;;;;;;6.97;100.00;96211.16;1044662;28;20048;-44
2020/12/22 01:35:03;;;;;;;4.67;3.63;;;;;;;6.97;100.00;96205.09;1044625;28;20017;-43
2020/12/22 01:35:33;;;;;;;4.20;3.17;;;;;;;6.98;100.00;96204.91;1044771;28;20058;-43
2020/12/22 01:36:04;;;;;;;5.40;3.53;;;;;;;7.00;100.00;96216.06;1044381;28;20025;-43
2020/12/22 01:36:34;;;;;;;4.57;3.20;;;;;;;7.00;100.00;96221.28;1044502;28;20016;-44
2020/12/22 01:37:10;;;;;;;4.83;3.53;;;;;;;7.05;100.00;96216.34;1044241;28;20535;-43
2020/12/22 01:37:41;;;;;;;4.38;3.20;;;;;;;7.09;100.00;96211.56;1044460;28;20086;-43
2020/12/22 01:38:11;;;;;;;4.23;3.40;;;;;;;7.09;100.00;96208.97;1044732;28;20082;-42
2020/12/22 01:38:42;;;;;;;4.37;3.37;;;;;;;7.09;100.00;96212.41;1044681;28;20054;-44
2020/12/22 01:39:12;;;;;;;5.47;3.90;;;;;;;7.10;100.00;96216.63;1044583;28;20021;-42
2020/12/22 01:39:43;;;;;;;4.57;3.40;;;;;;;7.13;100.00;96206.84;1044725;28;20053;-42
2020/12/22 01:40:13;;;;;;;3.90;3.37;;;;;;;7.15;100.00;96210.09;1044630;28;20025;-43
2020/12/22 01:40:48;;;;;;;5.23;3.40;;;;;;;7.16;100.00;96206.50;1044611;28;20025;-43
2020/12/22 01:41:19;;;;;;;4.03;3.13;;;;;;;7.16;100.00;96201.25;1044710;28;20112;-44
2020/12/22 01:41:49;;;;;;;5.43;3.50;;;;;;;7.17;100.00;96200.28;1044586;28;20029;-43
2020/12/22 01:42:20;;;;;;;4.60;3.60;;;;;;;7.17;100.00;96201.06;1044314;28;20017;-42
2020/12/22 01:42:50;;;;;;;6.17;4.30;;;;;;;7.16;100.00;96201.25;1039990;28;20044;-42
2020/12/22 01:43:20;;;;;;;6.00;3.93;;;;;;;7.15;100.00;96197.00;1040141;28;20025;-42
2020/12/22 01:44:08;;;;;;;4.47;3.60;;;;;;;7.16;100.00;96198.63;1040291;28;20032;-44
2020/12/22 01:44:38;;;;;;;4.57;3.78;;;;;;;7.15;100.00;96197.00;1044397;28;20021;-43
2020/12/22 01:45:12;;;;;;;5.70;3.70;;;;;;;7.15;100.00;96203.06;1044744;28;20098;-44
2020/12/22 01:45:42;;;;;;;4.90;4.05;;;;;;;7.15;100.00;96203.06;1044587;28;20439;-44
2020/12/22 01:46:13;;;;;;;5.50;4.20;;;;;;;7.13;100.00;96199.78;1044522;28;20025;-44
2020/12/22 01:46:50;;;;;;;4.83;4.07;;;;;;;7.14;100.00;96205.84;1044259;28;20424;-44
2020/12/22 01:47:21;;;;;;;5.00;3.65;;;;;;;7.20;100.00;96203.34;1040204;28;20102;-44
2020/12/22 01:47:52;;;;;;;5.03;3.45;;;;;;;7.25;100.00;96205.44;1036082;28;20491;-44
2020/12/22 01:48:22;;;;;;;5.07;3.50;;;;;;;7.28;100.00;96212.97;1037158;28;20026;-43
2020/12/22 01:48:52;;;;;;;7.50;4.33;;;;;;;7.27;100.00;96199.06;1036320;28;20065;-43
2020/12/22 01:49:24;;;;;;;5.20;3.70;;;;;;;7.30;100.00;96208.34;1036054;28;20025;-43
2020/12/22 01:49:54;;;;;;;5.13;4.07;;;;;;;7.32;100.00;96210.81;1040193;28;20058;-44
2020/12/22 01:50:25;;;;;;;4.40;3.60;;;;;;;7.35;100.00;96203.44;1036393;28;20033;-43
2020/12/22 01:50:56;;;;;;;5.83;4.10;;;;;;;7.33;100.00;96208.00;1040317;28;20267;-46
2020/12/22 01:51:29;;;;;;;4.97;3.97;;;;;;;7.33;100.00;96194.91;1040165;28;20021;-43
2020/12/22 01:52:00;;;;;;;5.75;4.10;;;;;;;7.33;100.00;96205.41;1036552;28;20426;-44
2020/12/22 01:52:30;;;;;;;5.70;3.93;;;;;;;7.33;100.00;96202.78;1040075;28;20033;-45
2020/12/22 01:53:01;;;;;;;4.70;3.80;;;;;;;7.35;100.00;96190.34;1036323;28;20018;-44
2020/12/22 01:53:31;;;;;;;4.83;3.90;;;;;;;7.37;100.00;96200.66;1040281;28;20065;-43
2020/12/22 01:54:02;;;;;;;4.90;4.00;;;;;;;7.34;100.00;96191.31;1044236;28;20148;-43
2020/12/22 01:54:32;;;;;;;5.07;3.83;;;;;;;7.35;100.00;96195.59;1040345;28;20393;-43
2020/12/22 01:55:03;;;;;;;6.47;3.87;;;;;;;7.37;100.00;96201.44;1043987;28;20036;-43
2020/12/22 01:55:33;;;;;;;5.90;4.33;;;;;;;7.35;100.00;96192.97;1044250;28;20047;-43
2020/12/22 01:56:03;;;;;;;5.60;4.17;;;;;;;7.35;100.00;96192.97;1027889;28;20027;-43
2020/12/22 01:56:36;;;;;;;5.97;4.43;;;;;;;7.32;100.00;96195.94;1023993;29;20023;-45
2020/12/22 01:57:10;;;;;;;5.68;3.97;;;;;;;7.32;100.00;96192.47;1024193;29;20031;-42
2020/12/22 01:57:42;;;;;;;5.82;4.60;;;;;;;7.32;100.00;96202.94;1027366;28;20057;-42
2020/12/22 01:58:13;;;;;;;5.32;4.35;;;;;;;7.34;100.00;96204.41;1038250;28;20043;-42
2020/12/22 01:58:43;;;;;;;6.17;4.20;;;;;;;7.34;100.00;96204.41;1044309;28;20461;-42
2020/12/22 01:59:14;;;;;;;5.90;3.97;;;;;;;7.36;100.00;96193.78;1044426;28;20032;-44
2020/12/22 01:59:44;;;;;;;5.40;4.20;;;;;;;7.36;100.00;96188.53;1044213;28;20462;-43
2020/12/22 02:00:15;;;;;;;5.37;4.33;;;;;;;7.33;100.00;96192.31;1044673;28;20020;-42
2020/12/22 02:00:45;;;;;;;5.13;4.20;;;;;;;7.33;100.00;96202.78;1044587;28;20065;-43
2020/12/22 02:01:16;;;;;;;6.00;4.60;;;;;;;7.31;100.00;96204.75;1044246;28;20021;-44
2020/12/22 02:01:48;;;;;;;5.40;4.20;;;;;;;7.35;100.00;96198.19;1044200;28;20055;-43
2020/12/22 02:02:18;;;;;;;4.90;4.18;;;;;;;7.36;100.00;96194.56;1044139;28;20047;-43
2020/12/22 02:02:49;;;;;;;5.20;4.20;;;;;;;7.37;100.00;96195.41;1040251;28;20453;-43
2020/12/22 02:03:19;;;;;;;5.80;4.17;;;;;;;7.36;100.00;96204.25;1035983;28;20120;-43
2020/12/22 02:03:50;;;;;;;5.17;4.10;;;;;;;7.32;100.00;96193.31;1031975;28;20454;-43
2020/12/22 02:04:20;;;;;;;5.60;4.30;;;;;;;7.33;100.00;96200.16;1028064;28;20038;-42
2020/12/22 02:04:51;;;;;;;4.67;4.10;;;;;;;7.33;100.00;96194.13;1024108;28;20488;-45
2020/12/22 02:05:21;;;;;;;6.40;4.40;;;;;;;7.31;100.00;96194.28;1032105;28;20494;-42
2020/12/22 02:05:52;;;;;;;5.67;4.10;;;;;;;7.33;100.00;96194.91;1036139;28;20013;-42
2020/12/22 02:06:22;;;;;;;5.40;4.47;;;;;;;7.33;100.00;96197.53;1040181;28;20075;-43
2020/12/22 02:06:53;;;;;;;5.33;4.13;;;;;;;7.34;100.00;96190.50;1044582;28;20096;-43
2020/12/22 02:07:23;;;;;;;5.07;4.40;;;;;;;7.34;100.00;96187.91;1044624;28;20024;-43
2020/12/22 02:07:54;;;;;;;6.10;4.37;;;;;;;7.36;100.00;96193.78;1044576;28;20017;-45
2020/12/22 02:08:24;;;;;;;5.87;3.93;;;;;;;7.32;100.00;96188.06;1045364;28;20009;-42
2020/12/22 02:08:55;;;;;;;6.63;4.87;;;;;;;7.30;100.00;96187.41;1044862;28;20017;-42
2020/12/22 02:09:26;;;;;;;6.70;4.60;;;;;;;7.31;100.00;96183.81;1044842;28;20024;-42
2020/12/22 02:09:56;;;;;;;5.30;4.40;;;;;;;7.29;100.00;96188.41;1044969;28;20027;-42
2020/12/22 02:10:26;;;;;;;6.20;4.83;;;;;;;7.27;100.00;96196.44;1044492;28;20021;-42
2020/12/22 02:10:57;;;;;;;6.50;4.60;;;;;;;7.31;100.00;96191.66;1044458;28;20464;-42
2020/12/22 02:11:28;;;;;;;6.70;4.60;;;;;;;7.33;100.00;96189.69;1044572;28;20135;-42
2020/12/22 02:11:59;;;;;;;5.80;4.50;;;;;;;7.33;100.00;96191.50;1044500;28;20023;-41
2020/12/22 02:12:29;;;;;;;5.53;4.43;;;;;;;7.31;100.00;96191.66;1044511;28;20393;-42
2020/12/22 02:13:00;;;;;;;6.20;4.40;;;;;;;7.33;100.00;96188.88;1044240;28;20035;-42
2020/12/22 02:13:30;;;;;;;6.93;4.43;;;;;;;7.36;100.00;96186.72;1044562;28;20025;-42
2020/12/22 02:14:01;;;;;;;6.03;4.67;;;;;;;7.35;100.00;96186.88;1044677;28;20013;-43
2020/12/22 02:14:32;;;;;;;5.30;4.43;;;;;;;7.35;100.00;96184.28;1044635;28;20033;-43
2020/12/22 02:15:02;;;;;;;6.13;4.20;;;;;;;7.36;100.00;96189.34;1044530;28;20025;-44
2020/12/22 02:15:33;;;;;;;5.07;4.30;;;;;;;7.37;100.00;96193.59;1044156;28;20029;-43
2020/12/22 02:16:03;;;;;;;6.10;5.00;;;;;;;7.34;100.00;96188.69;1044146;28;20029;-43
2020/12/22 02:16:34;;;;;;;6.20;4.27;;;;;;;7.36;100.00;96181.47;1044247;28;20402;-43
2020/12/22 02:17:05;;;;;;;6.45;4.50;;;;;;;7.37;100.00;96195.41;1036069;28;20033;-43
2020/12/22 02:17:35;;;;;;;5.57;4.43;;;;;;;7.37;100.00;96192.78;1040168;28;20501;-43
2020/12/22 02:18:06;;;;;;;5.10;4.07;;;;;;;7.37;100.00;96193.59;1031945;28;20023;-44
2020/12/22 02:18:36;;;;;;;5.00;4.17;;;;;;;7.36;100.00;96196.38;1032121;28;20025;-42
2020/12/22 02:19:07;;;;;;;7.60;4.67;;;;;;;7.36;100.00;96199.81;1040141;28;20069;-44
2020/12/22 02:19:37;;;;;;;5.73;4.40;;;;;;;7.39;100.00;96198.66;1040285;28;20443;-42
2020/12/22 02:20:08;;;;;;;5.47;4.33;;;;;;;7.39;100.00;96194.22;1044712;28;20017;-43
2020/12/22 02:20:39;;;;;;;5.07;3.60;;;;;;;7.44;100.00;96193.75;1045113;28;20021;-42
2020/12/22 02:21:10;;;;;;;6.18;4.20;;;;;;;7.42;100.00;96193.06;1044260;28;20076;-44
2020/12/22 02:21:40;;;;;;;5.17;4.30;;;;;;;7.39;100.00;96194.22;1044173;28;20421;-43
2020/12/22 02:22:11;;;;;;;4.90;4.30;;;;;;;7.43;100.00;96194.72;1044123;28;20025;-43
2020/12/22 02:22:41;;;;;;;5.50;4.27;;;;;;;7.42;100.00;96190.44;1044084;28;20013;-43
2020/12/22 02:23:12;;;;;;;5.77;4.50;;;;;;;7.41;100.00;96186.19;1044333;28;20458;-46
2020/12/22 02:23:48;;;;;;;4.90;3.77;;;;;;;7.43;100.00;96199.94;1044581;28;20083;-43
2020/12/22 02:24:19;;;;;;;5.53;4.57;;;;;;;7.42;100.00;96187.84;1044360;28;20032;-43
2020/12/22 02:24:50;;;;;;;6.68;4.32;;;;;;;7.41;100.00;96205.38;1044414;28;20040;-45
2020/12/22 02:25:20;;;;;;;7.57;4.37;;;;;;;7.41;100.00;96197.50;1044444;28;20048;-41